»·PEaware :: DAL243 KLGA-KBOS

DAL243 :: KLGA-KBOS

FLIGHT INFORMATION

Flight Status: Arrived
Operator:
Delta Air Lines
More flights by this operator :: More flights under this callsign
Pilot: Cullen C. (7783)
Aircraft: BOEING 737-800
(B738)
More flights by this aircraft type
Origin: KLGA La Guardia
United States
Destination: KBOS Logan Intl
United States
More flights between these airports :: More routes between these airports
Route: LGA5 MERIT ROBUC3
File this flight plan on PilotEdge
Remarks:
Altitude:
(Current/Filed)
23,000ft
Speed:
(Current/Filed)
440kts
Departed: 11-Jan-18 12:14 AM
Arrived: 11-Jan-18 12:58 AM
Distance/Time
Traveled:
159nm/0:44
Distance/Time
To Go:
Arrived

Flight Plot

Page will automatically refresh every two minutes.

Flight plan parsing failed; only flown route is shown


Map Options




Map Legend


Flown Route
Filed Route
Departure Airport
Arrival Airport
Navaid (VOR, NDB)
Fix

Horizontal Profiles

Position Reports

Time Latitude Longitude Heading Altitude Ground
Speed
11-Jan-18 00:04 40.771598 -73.863212 198 15ft 0kts
11-Jan-18 00:05 40.771598 -73.863212 198 15ft 0kts
11-Jan-18 00:06 40.771598 -73.863212 198 15ft 0kts
11-Jan-18 00:07 40.771598 -73.863212 198 15ft 0kts
11-Jan-18 00:08 40.771598 -73.863212 198 15ft 0kts
11-Jan-18 00:09 40.771601 -73.863211 198 15ft 0kts
11-Jan-18 00:10 40.772161 -73.862966 196 15ft 2kts
11-Jan-18 00:11 40.772752 -73.863005 158 15ft 2kts
11-Jan-18 00:12 40.773215 -73.863493 122 15ft 2kts
11-Jan-18 00:13 40.773361 -73.863803 122 15ft 0kts
11-Jan-18 00:14 40.773361 -73.863803 122 15ft 0kts
11-Jan-18 00:15 40.773361 -73.863803 122 15ft 0kts
11-Jan-18 00:16 40.773361 -73.863803 122 15ft 0kts
11-Jan-18 00:17 40.772077 -73.861085 121 15ft 14kts
11-Jan-18 00:18 40.771720 -73.857718 35 15ft 7kts
11-Jan-18 00:19 40.772962 -73.858989 301 15ft 37kts
11-Jan-18 00:20 40.790044 -73.893502 302 1327ft 175kts
11-Jan-18 00:21 40.818642 -73.954418 301 3150ft 224kts
11-Jan-18 00:22 40.860770 -74.038985 320 6215ft 257kts
11-Jan-18 00:23 40.912298 -74.017197 50 8832ft 284kts
11-Jan-18 00:24 40.969236 -73.912258 51 11633ft 331kts
11-Jan-18 00:25 41.014746 -73.827751 51 14084ft 347kts
11-Jan-18 00:26 41.071712 -73.721609 50 16904ft 365kts
11-Jan-18 00:27 41.129704 -73.613186 49 19519ft 382kts
11-Jan-18 00:28 41.191810 -73.496658 49 22091ft 397kts
11-Jan-18 00:29 41.257055 -73.373896 49 23454ft 428kts
11-Jan-18 00:30 41.325194 -73.245221 50 23436ft 448kts
11-Jan-18 00:31 41.386475 -73.104758 74 23442ft 460kts
11-Jan-18 00:32 41.403367 -72.935249 80 23448ft 462kts
11-Jan-18 00:33 41.420565 -72.765741 79 23450ft 462kts
11-Jan-18 00:34 41.438137 -72.596628 79 23440ft 463kts
11-Jan-18 00:35 41.456030 -72.426910 79 23429ft 464kts
11-Jan-18 00:36 41.474168 -72.257725 79 23442ft 463kts
11-Jan-18 00:37 41.518357 -72.100766 59 23451ft 454kts
11-Jan-18 00:38 41.572076 -71.947752 64 23462ft 456kts
11-Jan-18 00:39 41.615339 -71.801246 64 22604ft 412kts
11-Jan-18 00:40 41.656285 -71.661934 64 20582ft 398kts
11-Jan-18 00:41 41.695758 -71.527560 65 18640ft 383kts
11-Jan-18 00:42 41.736667 -71.399533 56 16775ft 365kts
11-Jan-18 00:43 41.786258 -71.285259 57 14970ft 352kts
11-Jan-18 00:44 41.833807 -71.173782 57 13232ft 340kts
11-Jan-18 00:45 41.879259 -71.067633 57 11884ft 318kts
11-Jan-18 00:46 41.922215 -70.967811 58 10814ft 306kts
11-Jan-18 00:47 41.963402 -70.871998 58 10095ft 295kts
11-Jan-18 00:48 42.004036 -70.777652 58 9382ft 290kts
11-Jan-18 00:49 42.055107 -70.695474 46 8677ft 285kts
11-Jan-18 00:50 42.107599 -70.621038 29 8023ft 279kts
11-Jan-18 00:51 42.180902 -70.595780 8 6985ft 271kts
11-Jan-18 00:52 42.253915 -70.575515 9 5978ft 266kts
11-Jan-18 00:53 42.325783 -70.565712 334 4954ft 253kts
11-Jan-18 00:54 42.378722 -70.626192 313 4442ft 250kts
11-Jan-18 00:55 42.428716 -70.690990 313 3941ft 248kts
11-Jan-18 00:56 42.476932 -70.754316 313 3447ft 227kts
11-Jan-18 00:57 42.521181 -70.813118 306 3060ft 212kts
11-Jan-18 00:58 42.528969 -70.883912 270 2574ft 183kts
11-Jan-18 00:59 42.510850 -70.933216 202 2162ft 166kts
11-Jan-18 01:00 42.469694 -70.954239 200 2005ft 156kts
11-Jan-18 01:01 42.430473 -70.973225 199 1005ft 140kts
11-Jan-18 01:02 42.395328 -70.990213 199 449ft 135kts
11-Jan-18 01:03 42.362429 -71.006324 199 14ft 62kts
11-Jan-18 01:04 42.358445 -71.012514 278 14ft 15kts
11-Jan-18 01:05 42.359245 -71.018320 295 14ft 15kts
11-Jan-18 01:06 42.361624 -71.023228 304 14ft 12kts
11-Jan-18 01:07 42.361849 -71.024349 280 14ft 0kts
11-Jan-18 01:08 42.361849 -71.024349 280 14ft 0kts
11-Jan-18 01:09 42.361849 -71.024349 280 14ft 0kts
11-Jan-18 01:10 42.361849 -71.024349 280 14ft 0kts

Navigation Log

Ident Type
Flight plan parsing failed, navigation log unavailable